Terminal Aerodrome Forecast
Issued by NWS Sterling, VA

Current Version | Previous Version | Graphics & Text | Print | Product List | Glossary On
Versions: 1 2 3 4 5 6 7 8 9 10 11 12 13 14 15 16 17 18 19 20 21 22 23 24
000
FTUS41 KLWX 172300
TAFIAD
TAF
KIAD 172340Z 1800/1906 VRB03KT P6SM SCT250
     FM180800 00000KT P6SM BKN090
     FM181100 00000KT 5SM BR BKN090
     FM181200 00000KT P6SM BKN090
     FM190000 00000KT 6SM -SHRA OVC090=

USA.gov is the U.S. government's official web portal to all federal, state and local government web resources and services.